createdAt,value
2022-12-06T00:01:56.832Z,89.82
2022-12-06T00:04:23.140Z,89.43
2022-12-06T00:06:53.289Z,89.71
2022-12-06T00:09:25.361Z,89.64
2022-12-06T00:11:52.476Z,89.65
2022-12-06T00:14:19.459Z,89.59
2022-12-06T00:16:46.329Z,89.32
2022-12-06T00:19:14.860Z,88.76
2022-12-06T00:21:41.341Z,87.98
2022-12-06T00:24:16.872Z,88.49
2022-12-06T00:26:45.252Z,87.90
2022-12-06T00:29:14.031Z,87.31
2022-12-06T00:31:40.437Z,87.54
2022-12-06T00:34:06.819Z,87.28
2022-12-06T00:36:36.181Z,87.61
2022-12-06T00:39:05.823Z,87.83
2022-12-06T00:41:32.178Z,88.23
2022-12-06T00:43:58.564Z,88.43
2022-12-06T00:46:28.655Z,88.50
2022-12-06T00:48:56.913Z,88.57
2022-12-06T00:51:24.613Z,87.75
2022-12-06T00:53:51.272Z,87.07
2022-12-06T00:56:18.755Z,86.32
2022-12-06T00:58:45.280Z,85.88
2022-12-06T01:01:17.742Z,85.90
2022-12-06T01:03:45.351Z,84.62
2022-12-06T01:06:14.643Z,84.44
2022-12-06T01:08:41.856Z,84.04
2022-12-06T01:11:08.648Z,84.16
2022-12-06T01:13:35.615Z,84.57
2022-12-06T01:16:11.048Z,85.27
2022-12-06T01:18:38.587Z,85.30
2022-12-06T01:21:11.033Z,85.08
2022-12-06T01:23:37.357Z,84.78
2022-12-06T01:26:05.444Z,84.49
2022-12-06T01:28:32.307Z,85.05
2022-12-06T01:30:58.687Z,84.99
2022-12-06T01:33:25.099Z,84.52
2022-12-06T01:35:51.372Z,84.19
2022-12-06T01:38:17.667Z,84.42
2022-12-06T01:40:47.109Z,84.15
2022-12-06T01:43:49.735Z,84.58
2022-12-06T01:46:28.057Z,84.24
2022-12-06T01:49:11.846Z,84.58
2022-12-06T01:51:40.865Z,84.30
2022-12-06T01:54:11.293Z,84.23
2022-12-06T01:56:38.742Z,83.57
2022-12-06T01:59:06.260Z,83.58
2022-12-06T02:01:34.151Z,84.03
2022-12-06T02:04:01.408Z,84.13
2022-12-06T02:06:29.992Z,84.26
2022-12-06T02:08:59.264Z,84.46
2022-12-06T02:11:28.379Z,84.11
2022-12-06T02:13:57.623Z,84.30
2022-12-06T02:16:31.617Z,84.17
2022-12-06T02:19:10.161Z,84.52
2022-12-06T02:21:48.649Z,84.71
2022-12-06T02:24:40.010Z,84.47
2022-12-06T02:27:19.753Z,84.92
2022-12-06T02:30:08.558Z,84.56
2022-12-06T02:32:53.177Z,84.48
2022-12-06T02:35:47.428Z,84.66
2022-12-06T02:38:31.770Z,84.97
2022-12-06T02:41:02.201Z,84.62
2022-12-06T02:43:37.087Z,84.35
2022-12-06T02:46:05.702Z,84.74
2022-12-06T02:48:34.014Z,84.78
2022-12-06T02:51:05.937Z,84.74
2022-12-06T02:53:37.110Z,84.49
2022-12-06T02:56:03.964Z,84.79
2022-12-06T02:58:35.706Z,84.43
2022-12-06T03:01:14.158Z,83.97
2022-12-06T03:03:59.104Z,84.21
2022-12-06T03:06:43.808Z,84.17
2022-12-06T03:09:24.718Z,84.47
2022-12-06T03:12:01.862Z,84.53
2022-12-06T03:14:38.347Z,84.14
2022-12-06T03:17:33.837Z,83.58
2022-12-06T03:20:08.177Z,83.95
2022-12-06T03:22:40.165Z,83.35
2022-12-06T03:25:09.149Z,83.00
2022-12-06T03:27:36.363Z,83.49
2022-12-06T03:30:08.238Z,83.03
2022-12-06T03:32:36.793Z,83.57
2022-12-06T03:35:08.078Z,82.62
2022-12-06T03:37:40.797Z,82.85
2022-12-06T03:40:25.658Z,83.42
2022-12-06T03:42:52.848Z,83.15
2022-12-06T03:45:22.319Z,83.40
2022-12-06T03:48:06.199Z,82.95
2022-12-06T03:50:39.613Z,82.65
2022-12-06T03:53:06.015Z,83.18
2022-12-06T03:55:32.299Z,83.74
2022-12-06T03:57:58.737Z,83.97
2022-12-06T04:00:25.062Z,84.08
2022-12-06T04:02:51.500Z,84.30
2022-12-06T04:05:18.580Z,84.07
2022-12-06T04:07:44.947Z,83.29
2022-12-06T04:10:11.553Z,82.66
2022-12-06T04:12:56.661Z,82.85
2022-12-06T04:15:23.106Z,81.97
2022-12-06T04:18:08.495Z,82.32
2022-12-06T04:20:53.985Z,82.72
2022-12-06T04:23:21.387Z,82.20
2022-12-06T04:25:47.876Z,82.65
2022-12-06T04:28:32.895Z,83.53
2022-12-06T04:31:22.032Z,83.41
2022-12-06T04:34:07.563Z,82.86
2022-12-06T04:36:52.314Z,82.73
2022-12-06T04:39:20.921Z,82.15
2022-12-06T04:42:06.672Z,81.89
2022-12-06T04:44:33.103Z,82.40
2022-12-06T04:47:00.001Z,82.77
2022-12-06T04:49:26.456Z,82.75
2022-12-06T04:51:54.050Z,83.20
2022-12-06T04:54:21.767Z,83.68
2022-12-06T04:56:48.557Z,83.72
2022-12-06T04:59:14.903Z,84.28
2022-12-06T05:01:41.214Z,83.64
2022-12-06T05:04:07.695Z,83.87
2022-12-06T05:06:34.132Z,84.01
2022-12-06T05:09:00.498Z,84.44
2022-12-06T05:11:26.843Z,84.30
2022-12-06T05:13:53.168Z,84.93
2022-12-06T05:16:19.600Z,84.90
2022-12-06T05:18:45.988Z,84.73
2022-12-06T05:21:17.948Z,84.78
2022-12-06T05:23:44.682Z,84.09
2022-12-06T05:26:13.340Z,84.19
2022-12-06T05:28:39.974Z,84.11
2022-12-06T05:31:06.578Z,83.92
2022-12-06T05:33:33.306Z,83.16
2022-12-06T05:35:59.774Z,83.71
2022-12-06T05:38:26.085Z,83.16
2022-12-06T05:40:52.438Z,83.36
2022-12-06T05:43:18.720Z,83.40
2022-12-06T05:45:45.596Z,83.68
2022-12-06T05:48:11.904Z,83.75
2022-12-06T05:50:38.230Z,83.82
2022-12-06T05:53:04.686Z,83.88
2022-12-06T05:55:30.992Z,83.94
2022-12-06T05:57:57.439Z,83.93
2022-12-06T06:00:23.885Z,83.75
2022-12-06T06:02:50.526Z,83.91
2022-12-06T06:05:17.243Z,83.79
2022-12-06T06:07:43.704Z,83.52
2022-12-06T06:10:10.825Z,83.82
2022-12-06T06:12:37.234Z,83.09
2022-12-06T06:15:07.028Z,82.22
2022-12-06T06:17:34.453Z,82.28
2022-12-06T06:20:05.355Z,82.22
2022-12-06T06:22:33.865Z,82.71
2022-12-06T06:25:01.114Z,83.29
2022-12-06T06:27:32.098Z,83.18
2022-12-06T06:29:58.712Z,82.88
2022-12-06T06:32:25.443Z,82.87
2022-12-06T06:34:51.728Z,82.81
2022-12-06T06:37:18.173Z,83.13
2022-12-06T06:39:44.478Z,83.63
2022-12-06T06:42:10.783Z,83.45
2022-12-06T06:44:37.086Z,82.66
2022-12-06T06:47:03.471Z,82.67
2022-12-06T06:49:29.801Z,82.27
2022-12-06T06:51:56.076Z,82.49
2022-12-06T06:54:23.565Z,82.83
2022-12-06T06:56:49.852Z,83.48
2022-12-06T06:59:16.189Z,82.70
2022-12-06T07:01:43.099Z,82.88
2022-12-06T07:04:09.673Z,83.09
2022-12-06T07:06:36.010Z,83.58
2022-12-06T07:09:02.294Z,83.59
2022-12-06T07:11:28.736Z,83.30
2022-12-06T07:13:55.032Z,83.54
2022-12-06T07:16:21.522Z,83.50
2022-12-06T07:18:48.102Z,83.01
2022-12-06T07:21:16.284Z,83.17
2022-12-06T07:23:42.953Z,83.26
2022-12-06T07:26:14.904Z,83.52
2022-12-06T07:28:43.371Z,83.90
2022-12-06T07:31:11.741Z,83.61
2022-12-06T07:33:38.652Z,83.83
2022-12-06T07:36:14.120Z,82.90
2022-12-06T07:38:42.954Z,83.79
2022-12-06T07:41:31.191Z,83.99
2022-12-06T07:44:17.556Z,83.56
2022-12-06T07:46:44.372Z,84.37
2022-12-06T07:49:10.904Z,84.39
2022-12-06T07:51:37.683Z,84.77
2022-12-06T07:54:04.179Z,83.39
2022-12-06T07:56:30.514Z,82.74
2022-12-06T07:58:56.805Z,83.07
2022-12-06T08:01:23.406Z,83.51
2022-12-06T08:03:50.439Z,82.68
2022-12-06T08:06:17.477Z,82.86
2022-12-06T08:08:43.804Z,82.14
2022-12-06T08:11:10.177Z,82.42
2022-12-06T08:13:36.977Z,81.42
2022-12-06T08:16:08.071Z,81.91
2022-12-06T08:18:35.696Z,81.18
2022-12-06T08:21:01.968Z,81.11
2022-12-06T08:23:33.827Z,81.56
2022-12-06T08:26:03.334Z,80.62
2022-12-06T08:28:30.973Z,80.98
2022-12-06T08:31:02.899Z,80.64
2022-12-06T08:33:32.044Z,79.99
2022-12-06T08:35:58.428Z,79.57
2022-12-06T08:38:24.802Z,78.80
2022-12-06T08:40:51.121Z,78.90
2022-12-06T08:43:17.754Z,77.44
2022-12-06T08:45:44.078Z,77.69
2022-12-06T08:48:10.364Z,78.25
2022-12-06T08:50:38.538Z,77.92
2022-12-06T08:53:04.837Z,78.51
2022-12-06T08:55:31.109Z,79.39
2022-12-06T08:57:57.423Z,78.04
2022-12-06T09:00:23.993Z,78.76
2022-12-06T09:02:50.381Z,78.19
2022-12-06T09:05:16.867Z,77.25
2022-12-06T09:07:43.311Z,77.24
2022-12-06T09:10:10.147Z,77.22
2022-12-06T09:12:36.438Z,76.61
2022-12-06T09:15:03.131Z,75.80
2022-12-06T09:17:29.413Z,76.14
2022-12-06T09:19:58.498Z,76.03
2022-12-06T09:22:27.142Z,76.41
2022-12-06T09:24:53.443Z,76.17
2022-12-06T09:27:19.888Z,76.17
2022-12-06T09:29:46.663Z,75.60
2022-12-06T09:32:12.981Z,75.81
2022-12-06T09:34:39.269Z,75.13
2022-12-06T09:37:10.533Z,75.19
2022-12-06T09:39:42.210Z,75.04
2022-12-06T09:42:42.835Z,75.55
2022-12-06T09:45:41.989Z,74.84
2022-12-06T09:48:32.083Z,74.78
2022-12-06T09:51:13.485Z,74.77
2022-12-06T09:54:01.018Z,74.96
2022-12-06T09:56:54.515Z,74.73
2022-12-06T09:59:46.325Z,74.53
2022-12-06T10:02:35.151Z,75.13
2022-12-06T10:05:04.166Z,75.25
2022-12-06T10:07:46.178Z,74.88
2022-12-06T10:10:26.082Z,75.26
2022-12-06T10:13:24.690Z,74.90
2022-12-06T10:16:04.490Z,75.19
2022-12-06T10:19:00.355Z,73.95
2022-12-06T10:21:38.072Z,73.61
2022-12-06T10:24:36.928Z,73.57
2022-12-06T10:27:10.092Z,73.81
2022-12-06T10:29:44.918Z,73.64
2022-12-06T10:32:16.813Z,74.08
2022-12-06T10:34:55.212Z,74.40
2022-12-06T10:37:57.305Z,74.18
2022-12-06T10:40:31.453Z,73.87
2022-12-06T10:43:04.962Z,74.26
2022-12-06T10:46:26.721Z,74.55
2022-12-06T10:48:52.996Z,74.39
2022-12-06T10:51:25.798Z,73.55
2022-12-06T10:53:57.393Z,71.86
2022-12-06T10:56:31.831Z,71.83
2022-12-06T10:59:25.558Z,71.03
2022-12-06T11:01:54.084Z,71.80
2022-12-06T11:04:28.683Z,71.10
2022-12-06T11:07:01.370Z,71.58
2022-12-06T11:09:39.955Z,69.81
2022-12-06T11:12:36.239Z,70.23
2022-12-06T11:15:14.679Z,70.17
2022-12-06T11:17:44.806Z,71.06
2022-12-06T11:20:34.159Z,69.65
2022-12-06T11:23:09.982Z,69.48
2022-12-06T11:25:52.649Z,70.27
2022-12-06T11:28:37.786Z,69.08
2022-12-06T11:31:19.813Z,69.81
2022-12-06T11:33:46.388Z,70.57
2022-12-06T11:36:12.765Z,71.25
2022-12-06T11:38:43.779Z,71.79
2022-12-06T11:41:26.406Z,71.23
2022-12-06T11:43:54.597Z,71.72
2022-12-06T11:46:22.958Z,70.53
2022-12-06T11:48:49.904Z,71.84
2022-12-06T11:51:23.064Z,71.30
2022-12-06T11:54:03.599Z,72.02
2022-12-06T11:56:34.445Z,71.90
2022-12-06T11:59:06.822Z,72.18
2022-12-06T12:01:39.151Z,72.67
2022-12-06T12:04:38.186Z,72.52
2022-12-06T12:07:11.155Z,72.14
2022-12-06T12:10:00.570Z,71.45
2022-12-06T12:13:07.479Z,70.00
2022-12-06T12:15:35.706Z,69.17
2022-12-06T12:18:03.475Z,68.92
2022-12-06T12:20:44.437Z,68.48
2022-12-06T12:23:25.591Z,68.57
2022-12-06T12:26:10.945Z,70.07
2022-12-06T12:28:40.792Z,70.57
2022-12-06T12:31:15.976Z,70.11
2022-12-06T12:33:42.322Z,70.42
2022-12-06T12:36:15.626Z,69.91
2022-12-06T12:38:50.774Z,69.80
2022-12-06T12:41:23.296Z,70.02
2022-12-06T12:47:19.759Z,71.00
2022-12-06T12:50:23.724Z,71.55
2022-12-06T12:52:51.274Z,71.75
2022-12-06T12:55:26.653Z,72.67
2022-12-06T12:57:56.198Z,72.26
2022-12-06T13:00:29.606Z,71.90
2022-12-06T13:03:28.494Z,73.22
2022-12-06T13:05:57.173Z,72.48
2022-12-06T13:08:33.161Z,73.55
2022-12-06T13:11:02.411Z,73.03
2022-12-06T13:13:42.737Z,73.57
2022-12-06T13:16:15.004Z,73.68
2022-12-06T13:18:46.153Z,73.50
2022-12-06T13:21:22.261Z,73.79
2022-12-06T13:24:07.498Z,74.45
2022-12-06T13:26:39.616Z,73.98
2022-12-06T13:29:29.866Z,74.55
2022-12-06T13:31:59.158Z,74.65
2022-12-06T13:34:37.571Z,73.38
2022-12-06T13:37:25.444Z,73.22
2022-12-06T13:39:51.843Z,73.88
2022-12-06T13:42:43.921Z,74.56
2022-12-06T13:45:46.321Z,73.98
2022-12-06T13:48:24.805Z,74.12
2022-12-06T13:51:12.273Z,74.05
2022-12-06T13:54:03.723Z,73.92
2022-12-06T13:56:32.954Z,74.12
2022-12-06T13:59:01.666Z,74.67
2022-12-06T14:01:50.660Z,74.45
2022-12-06T14:06:53.576Z,74.22
2022-12-06T14:09:20.793Z,73.76
2022-12-06T14:11:47.251Z,73.64
2022-12-06T14:14:24.971Z,73.64
2022-12-06T14:17:01.966Z,73.53
2022-12-06T14:19:28.238Z,73.95
2022-12-06T14:21:54.875Z,74.34
2022-12-06T14:24:37.016Z,74.84
2022-12-06T14:27:23.451Z,74.77
2022-12-06T14:30:14.548Z,75.12
2022-12-06T14:32:44.214Z,75.56
2022-12-06T14:35:15.533Z,75.82
2022-12-06T14:38:01.489Z,75.27
2022-12-06T14:40:46.072Z,74.93
2022-12-06T14:43:17.930Z,75.01
2022-12-06T14:45:45.375Z,75.61
2022-12-06T14:48:13.021Z,76.16
2022-12-06T14:50:49.631Z,76.91
2022-12-06T14:53:29.921Z,77.16
2022-12-06T14:55:59.576Z,77.39
2022-12-06T14:58:30.065Z,78.26
2022-12-06T15:00:59.976Z,78.27
2022-12-06T15:03:31.969Z,78.67
2022-12-06T15:06:13.073Z,78.86
2022-12-06T15:08:49.145Z,79.30
2022-12-06T15:11:38.162Z,79.82
2022-12-06T15:14:25.326Z,78.61
2022-12-06T15:17:17.104Z,78.78
2022-12-06T15:19:48.712Z,79.44
2022-12-06T15:22:25.316Z,79.85
2022-12-06T15:24:55.102Z,79.21
2022-12-06T15:27:23.151Z,79.94
2022-12-06T15:29:50.123Z,79.76
2022-12-06T15:32:19.401Z,80.29
2022-12-06T15:34:46.390Z,80.14
2022-12-06T15:37:38.323Z,80.27
2022-12-06T15:40:02.158Z,79.07
2022-12-06T15:42:28.684Z,79.10
2022-12-06T15:44:55.265Z,79.65
2022-12-06T15:47:21.693Z,79.18
2022-12-06T15:49:50.855Z,79.23
2022-12-06T15:52:21.783Z,79.52
2022-12-06T15:54:48.085Z,80.25
2022-12-06T15:57:14.853Z,80.54
2022-12-06T15:59:41.239Z,81.34
2022-12-06T16:02:16.224Z,81.20
2022-12-06T16:04:43.014Z,80.23
2022-12-06T16:07:09.302Z,80.16
2022-12-06T16:09:35.606Z,79.96
2022-12-06T16:12:01.931Z,80.40
2022-12-06T16:14:28.250Z,80.86
2022-12-06T16:16:54.633Z,81.30
2022-12-06T16:19:20.982Z,81.71
2022-12-06T16:21:54.499Z,82.29
2022-12-06T16:24:21.381Z,82.28
2022-12-06T16:26:47.867Z,82.99
2022-12-06T16:29:20.757Z,82.89
2022-12-06T16:31:47.665Z,82.78
2022-12-06T16:34:14.440Z,83.21
2022-12-06T16:36:58.290Z,82.87
2022-12-06T16:39:24.704Z,83.44
2022-12-06T16:41:51.010Z,83.44
2022-12-06T16:44:17.374Z,83.55
2022-12-06T16:46:45.451Z,83.31
2022-12-06T16:49:48.752Z,83.36
2022-12-06T16:52:04.408Z,83.73
2022-12-06T16:54:30.685Z,83.51
2022-12-06T16:56:57.010Z,83.17
2022-12-06T16:59:23.365Z,83.35
2022-12-06T17:01:52.728Z,83.31
2022-12-06T17:04:19.453Z,83.13
2022-12-06T17:06:46.843Z,83.13
2022-12-06T17:09:14.236Z,82.43
2022-12-06T17:11:59.386Z,81.71
2022-12-06T17:14:26.290Z,82.62
2022-12-06T17:16:52.876Z,82.40
2022-12-06T17:19:23.119Z,81.81
2022-12-06T17:21:51.594Z,82.15
2022-12-06T17:24:20.748Z,82.35
2022-12-06T17:26:47.166Z,82.80
2022-12-06T17:29:13.810Z,82.57
2022-12-06T17:31:40.183Z,81.84
2022-12-06T17:34:10.093Z,81.36
2022-12-06T17:36:36.363Z,81.77
2022-12-06T17:39:06.382Z,82.45
2022-12-06T17:41:52.215Z,82.21
2022-12-06T17:44:19.451Z,82.42
2022-12-06T17:46:45.775Z,82.27
2022-12-06T17:49:21.597Z,82.79
2022-12-06T17:51:48.389Z,82.61
2022-12-06T17:54:15.225Z,82.65
2022-12-06T17:56:43.904Z,83.28
2022-12-06T17:59:14.573Z,83.44
2022-12-06T18:04:28.810Z,82.69
2022-12-06T18:06:55.396Z,83.02
2022-12-06T18:09:21.781Z,82.45
2022-12-06T18:11:48.946Z,82.52
2022-12-06T18:14:15.962Z,82.67
2022-12-06T18:16:45.586Z,82.63
2022-12-06T18:19:14.931Z,82.87
2022-12-06T18:21:41.445Z,83.14
2022-12-06T18:24:21.490Z,82.84
2022-12-06T18:26:49.661Z,82.38
2022-12-06T18:29:21.824Z,82.05
2022-12-06T18:31:48.972Z,81.73
2022-12-06T18:34:15.431Z,81.93
2022-12-06T18:36:42.340Z,82.25
2022-12-06T18:39:15.279Z,82.54
2022-12-06T18:41:43.421Z,82.51
2022-12-06T18:44:10.541Z,82.95
2022-12-06T18:46:38.587Z,82.95
2022-12-06T18:49:05.102Z,82.31
2022-12-06T18:51:33.726Z,81.79
2022-12-06T18:54:02.227Z,82.41
2022-12-06T18:56:30.120Z,82.55
2022-12-06T18:59:01.444Z,82.16
2022-12-06T19:01:30.198Z,82.53
2022-12-06T19:03:59.525Z,81.95
2022-12-06T19:06:28.199Z,81.95
2022-12-06T19:08:57.713Z,82.73
2022-12-06T19:11:24.574Z,83.26
2022-12-06T19:13:58.798Z,83.73
2022-12-06T19:16:33.126Z,84.25
2022-12-06T19:19:00.845Z,84.28
2022-12-06T19:21:27.577Z,83.98
2022-12-06T19:23:57.608Z,83.87
2022-12-06T19:26:25.739Z,83.84
2022-12-06T19:28:53.177Z,83.93
2022-12-06T19:31:22.749Z,84.38
2022-12-06T19:33:50.295Z,84.97
2022-12-06T19:36:28.778Z,85.41
2022-12-06T19:39:04.385Z,85.69
2022-12-06T19:41:31.248Z,84.71
2022-12-06T19:44:17.706Z,83.45
2022-12-06T19:46:45.641Z,83.58
2022-12-06T19:49:13.611Z,83.83
2022-12-06T19:51:41.965Z,83.35
2022-12-06T19:54:10.294Z,82.45
2022-12-06T19:56:39.173Z,82.33
2022-12-06T19:59:11.386Z,82.69
2022-12-06T20:01:43.480Z,82.46
2022-12-06T20:04:14.927Z,82.53
2022-12-06T20:06:41.246Z,81.88
2022-12-06T20:09:07.717Z,81.08
2022-12-06T20:11:55.335Z,80.90
2022-12-06T20:14:21.823Z,80.87
2022-12-06T20:16:48.401Z,82.00
2022-12-06T20:19:15.918Z,82.22
2022-12-06T20:21:43.230Z,81.75
2022-12-06T20:24:11.062Z,82.12
2022-12-06T20:26:37.429Z,82.23
2022-12-06T20:29:03.999Z,82.74
2022-12-06T20:31:33.033Z,82.98
2022-12-06T20:34:01.906Z,82.58
2022-12-06T20:36:30.259Z,83.21
2022-12-06T20:38:57.310Z,83.47
2022-12-06T20:41:25.941Z,83.82
2022-12-06T20:43:52.990Z,84.51
2022-12-06T20:46:23.037Z,84.97
2022-12-06T20:48:49.474Z,85.74
2022-12-06T20:51:19.114Z,86.23
2022-12-06T20:53:49.676Z,87.21
2022-12-06T20:56:21.536Z,88.05
2022-12-06T20:58:53.550Z,88.32
2022-12-06T21:01:22.978Z,88.65
2022-12-06T21:03:51.237Z,88.92
2022-12-06T21:06:19.400Z,89.41
2022-12-06T21:08:46.639Z,89.32
2022-12-06T21:11:22.509Z,90.29
2022-12-06T21:13:51.651Z,90.42
2022-12-06T21:16:21.017Z,91.01
2022-12-06T21:18:49.297Z,91.12
2022-12-06T21:21:25.064Z,91.65
2022-12-06T21:23:51.526Z,91.72
2022-12-06T21:26:17.953Z,92.01
2022-12-06T21:28:44.250Z,92.51
2022-12-06T21:31:10.572Z,92.66
2022-12-06T21:33:36.976Z,93.01
2022-12-06T21:36:05.830Z,92.89
2022-12-06T21:38:32.612Z,92.96
2022-12-06T21:41:11.887Z,92.98
2022-12-06T21:43:39.010Z,93.12
2022-12-06T21:46:07.573Z,93.31
2022-12-06T21:48:34.218Z,93.45
2022-12-06T21:51:05.661Z,93.29
2022-12-06T21:53:32.403Z,93.34
2022-12-06T21:55:58.813Z,93.31
2022-12-06T21:58:26.043Z,93.73
2022-12-06T22:00:52.455Z,94.25
2022-12-06T22:03:22.871Z,94.22
2022-12-06T22:05:49.813Z,93.79
2022-12-06T22:08:16.176Z,93.74
2022-12-06T22:10:42.733Z,93.76
2022-12-06T22:13:09.430Z,94.05
2022-12-06T22:15:35.940Z,94.55
2022-12-06T22:18:02.445Z,94.72
2022-12-06T22:20:28.829Z,94.98
2022-12-06T22:22:55.211Z,94.57
2022-12-06T22:25:21.496Z,94.79
2022-12-06T22:27:47.825Z,94.93
2022-12-06T22:30:14.314Z,95.14
2022-12-06T22:32:42.976Z,94.99
2022-12-06T22:35:09.394Z,95.06
2022-12-06T22:37:35.652Z,95.29
2022-12-06T22:40:02.220Z,95.41
2022-12-06T22:42:31.610Z,95.35
2022-12-06T22:44:57.965Z,95.37
2022-12-06T22:47:24.293Z,95.35
2022-12-06T22:49:50.573Z,95.20
2022-12-06T22:52:16.862Z,95.08
2022-12-06T22:54:43.154Z,95.63
2022-12-06T22:57:09.457Z,95.66
2022-12-06T22:59:35.778Z,95.55
2022-12-06T23:02:02.206Z,95.58
2022-12-06T23:04:28.588Z,95.84
2022-12-06T23:06:54.892Z,95.49
2022-12-06T23:09:21.263Z,95.48
2022-12-06T23:11:47.618Z,95.60
2022-12-06T23:14:13.972Z,95.52
2022-12-06T23:16:43.351Z,95.49
2022-12-06T23:19:10.316Z,95.73
2022-12-06T23:21:37.447Z,95.71
2022-12-06T23:24:07.558Z,95.77
2022-12-06T23:26:36.142Z,96.02
2022-12-06T23:29:03.147Z,95.94
2022-12-06T23:31:32.029Z,95.96
2022-12-06T23:34:02.588Z,96.12
2022-12-06T23:36:31.688Z,96.01
2022-12-06T23:38:58.345Z,96.21
2022-12-06T23:41:27.205Z,96.08
2022-12-06T23:43:54.588Z,96.29
2022-12-06T23:46:32.589Z,96.42
2022-12-06T23:48:59.353Z,96.74
2022-12-06T23:51:30.708Z,96.47
2022-12-06T23:53:58.824Z,96.31
2022-12-06T23:56:27.862Z,96.33
2022-12-06T23:58:54.391Z,96.05
